Time;durP1;ratioP1;P1;durP2;ratioP2;P2;SDS_P1;SDS_P2;PMS_P1;PMS_P2;Temp;Humidity;BMP_temperature;BMP_pressure;BME280_temperature;BME280_humidity;BME280_pressure;Samples;Min_cycle;Max_cycle;Signal;HPM_P1;HPM_P2
2022/02/16 00:01:25;;;;;;;3.60;2.00;;;18.40;69.20;;;;;;5018713;28;20174;-83
2022/02/16 00:03:51;;;;;;;4.88;2.47;;;18.40;69.50;;;;;;5018813;28;20171;-83
2022/02/16 00:06:18;;;;;;;3.10;2.00;;;18.40;69.30;;;;;;5018879;28;20523;-83
2022/02/16 00:08:44;;;;;;;5.13;2.30;;;18.40;68.90;;;;;;5036313;28;20151;-83
2022/02/16 00:11:10;;;;;;;4.18;2.15;;;18.40;68.90;;;;;;5018520;28;20159;-83
2022/02/16 00:13:36;;;;;;;3.95;2.33;;;18.40;69.00;;;;;;5018480;28;20154;-83
2022/02/16 00:16:08;;;;;;;4.28;2.10;;;18.40;69.30;;;;;;5002004;28;20167;-83
2022/02/16 00:18:36;;;;;;;5.97;2.53;;;18.40;69.00;;;;;;5002922;28;20545;-83
2022/02/16 00:21:02;;;;;;;5.18;2.40;;;18.40;68.70;;;;;;5002176;28;20242;-83
2022/02/16 00:23:28;;;;;;;5.38;2.60;;;18.40;69.10;;;;;;5002050;28;20175;-83
2022/02/16 00:25:55;;;;;;;3.55;2.17;;;18.40;69.10;;;;;;5018131;28;20159;-83
2022/02/16 00:28:22;;;;;;;3.35;2.22;;;18.40;69.00;;;;;;5018422;28;20235;-84
2022/02/16 00:30:47;;;;;;;5.72;2.20;;;18.40;68.90;;;;;;5018028;28;20167;-83
2022/02/16 00:33:13;;;;;;;3.95;2.30;;;18.40;68.70;;;;;;5018242;28;20163;-83
2022/02/16 00:35:39;;;;;;;4.05;1.83;;;18.50;68.70;;;;;;5017248;28;20198;-83
2022/02/16 00:38:05;;;;;;;3.88;2.17;;;18.30;68.60;;;;;;5018188;28;20159;-83
2022/02/16 00:40:31;;;;;;;5.63;2.30;;;18.40;68.80;;;;;;5001690;28;20175;-83
2022/02/16 00:42:57;;;;;;;5.10;2.58;;;18.40;68.90;;;;;;5035616;28;20280;-83
2022/02/16 00:45:24;;;;;;;2.95;2.10;;;18.40;68.90;;;;;;5018019;28;20159;-83
2022/02/16 00:47:50;;;;;;;4.18;2.20;;;18.30;68.60;;;;;;5035536;28;20155;-83
2022/02/16 00:50:16;;;;;;;6.68;2.20;;;18.40;68.70;;;;;;5017841;28;20176;-83
2022/02/16 00:52:42;;;;;;;4.10;2.13;;;18.30;68.60;;;;;;5017912;28;20257;-83
2022/02/16 00:55:08;;;;;;;3.03;2.20;;;18.30;68.90;;;;;;5035443;28;20191;-83
2022/02/16 00:57:34;;;;;;;4.53;2.42;;;18.30;68.90;;;;;;5017953;28;20501;-83
2022/02/16 01:00:00;;;;;;;4.07;2.20;;;18.30;68.60;;;;;;5017953;28;20166;-84
2022/02/16 01:02:26;;;;;;;4.95;2.13;;;18.30;68.90;;;;;;5017566;28;20183;-83
2022/02/16 01:04:53;;;;;;;6.18;2.17;;;18.30;68.80;;;;;;5035377;28;20167;-84
2022/02/16 01:07:21;;;;;;;6.10;2.20;;;18.30;68.60;;;;;;4984281;28;20272;-83
2022/02/16 01:09:48;;;;;;;4.93;2.47;;;18.20;68.50;;;;;;4984289;28;20269;-83
2022/02/16 01:12:15;;;;;;;4.68;2.10;;;18.20;68.90;;;;;;4968158;28;20277;-83
2022/02/16 01:14:40;;;;;;;3.95;2.00;;;18.20;68.70;;;;;;4967917;28;20283;-84
2022/02/16 01:17:06;;;;;;;3.65;2.00;;;18.20;68.70;;;;;;5035117;28;20625;-84
2022/02/16 01:19:32;;;;;;;4.25;2.10;;;18.20;68.50;;;;;;5035189;28;20514;-84
2022/02/16 01:21:59;;;;;;;3.10;2.05;;;18.20;68.70;;;;;;5001039;28;20171;-83
2022/02/16 01:24:25;;;;;;;4.35;2.10;;;18.20;69.00;;;;;;5000246;28;20194;-83
2022/02/16 01:26:51;;;;;;;4.43;2.10;;;18.20;68.40;;;;;;4963971;28;20763;-83
2022/02/16 01:29:18;;;;;;;5.18;2.30;;;18.20;69.00;;;;;;4997676;28;20164;-83
2022/02/16 01:31:44;;;;;;;6.82;2.35;;;18.20;68.90;;;;;;4980495;28;20226;-83
2022/02/16 01:34:09;;;;;;;3.45;1.98;;;18.20;68.70;;;;;;4997256;28;20625;-83
2022/02/16 01:36:36;;;;;;;4.68;2.03;;;18.10;68.50;;;;;;4997448;28;20160;-83
2022/02/16 01:39:03;;;;;;;3.05;2.10;;;18.20;68.60;;;;;;4996673;28;20189;-84
2022/02/16 01:41:30;;;;;;;4.68;2.13;;;18.20;68.90;;;;;;4964223;28;20175;-83
2022/02/16 01:43:56;;;;;;;4.70;2.03;;;18.20;68.50;;;;;;4997240;28;20242;-83
2022/02/16 01:46:22;;;;;;;4.90;2.40;;;18.20;69.20;;;;;;5013942;28;20188;-83
2022/02/16 01:48:49;;;;;;;2.58;1.92;;;18.20;68.90;;;;;;5014486;28;20583;-83
2022/02/16 01:51:15;;;;;;;3.00;2.00;;;18.10;68.70;;;;;;4997236;28;20234;-83
2022/02/16 01:53:41;;;;;;;2.75;2.15;;;18.10;68.80;;;;;;5014791;28;20148;-84
2022/02/16 01:56:07;;;;;;;4.30;2.30;;;18.20;68.40;;;;;;4980753;28;20167;-83
2022/02/16 01:58:34;;;;;;;2.95;2.20;;;18.10;69.00;;;;;;4964952;28;20156;-83
2022/02/16 02:01:01;;;;;;;4.03;2.28;;;18.10;68.70;;;;;;4980919;28;20201;-84
2022/02/16 02:03:27;;;;;;;3.58;2.30;;;18.10;68.30;;;;;;4997283;28;20151;-83
2022/02/16 02:05:53;;;;;;;5.50;2.35;;;18.20;68.70;;;;;;4980843;28;20168;-84
2022/02/16 02:08:24;;;;;;;3.33;2.10;;;18.10;68.50;;;;;;4996724;28;20163;-83
2022/02/16 02:10:50;;;;;;;4.07;2.33;;;18.10;68.50;;;;;;4965783;28;20238;-83
2022/02/16 02:13:16;;;;;;;2.88;1.90;;;18.10;68.50;;;;;;4980764;28;20600;-83
2022/02/16 02:15:42;;;;;;;4.97;2.20;;;18.10;68.60;;;;;;4964220;28;20203;-83
2022/02/16 02:18:07;;;;;;;3.75;2.00;;;18.10;68.80;;;;;;4996798;28;20551;-84
2022/02/16 02:20:33;;;;;;;4.45;2.20;;;18.00;68.10;;;;;;4996584;28;20207;-83
2022/02/16 02:22:59;;;;;;;2.85;1.70;;;18.10;68.40;;;;;;4996544;28;20167;-84
2022/02/16 02:25:24;;;;;;;4.05;2.20;;;18.10;68.50;;;;;;4996656;28;20590;-83
2022/02/16 02:27:52;;;;;;;3.38;2.28;;;18.10;68.60;;;;;;4990034;28;20214;-83
2022/02/16 02:30:17;;;;;;;4.00;1.92;;;18.00;68.80;;;;;;4999940;28;20159;-83
2022/02/16 02:32:44;;;;;;;4.22;2.40;;;18.00;68.10;;;;;;5016041;28;20155;-83
2022/02/16 02:35:10;;;;;;;5.28;2.15;;;18.10;68.60;;;;;;4999748;28;20665;-83
2022/02/16 02:37:39;;;;;;;3.05;2.05;;;18.10;68.40;;;;;;4999800;28;20155;-83
2022/02/16 02:40:07;;;;;;;3.80;2.17;;;18.00;68.30;;;;;;5033850;28;20155;-83
2022/02/16 02:42:37;;;;;;;4.30;2.33;;;18.00;69.60;;;;;;5015284;28;20214;-83
2022/02/16 02:45:06;;;;;;;6.45;2.13;;;18.00;68.50;;;;;;4999068;28;20186;-83
2022/02/16 02:47:32;;;;;;;3.95;1.73;;;18.00;68.30;;;;;;4982889;28;20189;-83
2022/02/16 02:49:59;;;;;;;4.57;2.10;;;18.00;68.50;;;;;;4998401;28;20194;-86
2022/02/16 02:52:28;;;;;;;3.10;2.20;;;18.00;68.40;;;;;;4998450;28;20654;-84
2022/02/16 02:54:56;;;;;;;2.83;2.10;;;18.00;68.50;;;;;;4998589;28;20215;-83
2022/02/16 02:57:22;;;;;;;3.75;2.03;;;18.00;68.40;;;;;;5014884;28;20186;-83
2022/02/16 02:59:47;;;;;;;3.50;2.33;;;18.00;68.50;;;;;;5032814;28;20178;-83
2022/02/16 03:02:15;;;;;;;4.95;2.28;;;18.00;68.50;;;;;;4999337;28;20151;-83
2022/02/16 03:04:40;;;;;;;4.68;2.20;;;17.90;68.30;;;;;;4998564;28;20240;-83
2022/02/16 03:07:06;;;;;;;4.28;2.20;;;18.00;68.50;;;;;;5033243;28;20246;-83
2022/02/16 03:09:32;;;;;;;5.03;1.85;;;18.00;68.40;;;;;;5015620;28;20174;-84
2022/02/16 03:11:57;;;;;;;3.30;2.10;;;18.00;68.60;;;;;;5015912;28;20159;-83
2022/02/16 03:14:23;;;;;;;3.95;2.28;;;18.00;68.50;;;;;;5015370;28;20703;-83
2022/02/16 03:16:49;;;;;;;2.90;2.15;;;18.00;68.70;;;;;;5015549;28;20158;-83
2022/02/16 03:19:16;;;;;;;2.45;1.70;;;18.00;68.60;;;;;;4999159;28;20610;-83
2022/02/16 03:21:44;;;;;;;3.97;1.98;;;18.00;68.10;;;;;;4998334;28;20261;-84
2022/02/16 03:24:12;;;;;;;4.05;1.90;;;18.00;68.30;;;;;;4998791;28;20193;-83
2022/02/16 03:26:37;;;;;;;5.85;2.00;;;18.00;68.30;;;;;;4998188;28;20194;-83
2022/02/16 03:29:03;;;;;;;5.05;2.10;;;18.00;68.40;;;;;;5015349;28;20270;-83
2022/02/16 03:31:30;;;;;;;2.40;1.67;;;18.00;68.10;;;;;;4983118;28;20175;-83
2022/02/16 03:33:58;;;;;;;5.88;2.15;;;18.00;68.50;;;;;;4997713;28;20178;-84
2022/02/16 03:36:26;;;;;;;3.08;1.75;;;18.00;68.30;;;;;;4998400;28;20646;-83
2022/02/16 03:38:52;;;;;;;4.03;2.13;;;18.00;68.00;;;;;;5033072;28;20147;-83
2022/02/16 03:41:17;;;;;;;3.42;2.10;;;17.90;67.80;;;;;;5015570;28;20159;-83
2022/02/16 03:43:43;;;;;;;3.47;2.20;;;17.90;67.80;;;;;;5033057;28;20163;-83
2022/02/16 03:46:08;;;;;;;2.65;1.98;;;18.00;68.50;;;;;;5015239;28;20213;-83
2022/02/16 03:48:34;;;;;;;2.22;1.77;;;18.00;68.20;;;;;;5015084;28;20162;-83
2022/02/16 03:51:00;;;;;;;3.03;1.88;;;18.00;68.00;;;;;;4999100;28;20158;-83
2022/02/16 03:53:25;;;;;;;5.57;2.53;;;17.90;68.10;;;;;;4998716;28;20167;-83
2022/02/16 03:55:51;;;;;;;3.55;2.15;;;17.90;67.70;;;;;;5015248;28;20186;-83
2022/02/16 03:58:17;;;;;;;4.10;1.88;;;17.90;68.10;;;;;;5015061;28;20159;-83
2022/02/16 04:00:43;;;;;;;3.35;2.05;;;17.90;68.60;;;;;;5015019;28;20163;-83
2022/02/16 04:03:09;;;;;;;2.90;1.85;;;18.00;68.60;;;;;;5033024;28;20170;-84
2022/02/16 04:05:34;;;;;;;3.42;2.25;;;18.00;68.10;;;;;;4983017;28;20167;-83
2022/02/16 04:08:00;;;;;;;3.38;2.08;;;17.90;68.20;;;;;;4998549;28;20179;-84
2022/02/16 04:10:26;;;;;;;3.75;2.17;;;17.90;68.40;;;;;;5016319;28;20633;-83
2022/02/16 04:12:51;;;;;;;5.88;2.22;;;17.90;68.30;;;;;;5018838;28;20177;-83
2022/02/16 04:15:17;;;;;;;4.07;2.47;;;17.90;68.00;;;;;;5036215;28;20269;-83
2022/02/16 04:17:43;;;;;;;3.72;2.30;;;17.90;68.30;;;;;;5018389;28;20174;-83
2022/02/16 04:20:09;;;;;;;4.07;1.90;;;17.90;68.40;;;;;;4985932;28;20629;-83
2022/02/16 04:22:46;;;;;;;4.07;2.30;;;17.90;68.50;;;;;;5002367;28;20565;-83
2022/02/16 04:25:12;;;;;;;3.20;2.05;;;17.90;68.30;;;;;;5018429;28;20617;-83
2022/02/16 04:27:38;;;;;;;4.65;2.30;;;17.90;68.40;;;;;;4985768;28;20288;-84
2022/02/16 04:30:05;;;;;;;3.13;2.10;;;17.90;69.10;;;;;;5018360;28;20656;-84
2022/02/16 04:32:31;;;;;;;2.55;2.00;;;17.90;68.50;;;;;;4985969;28;20166;-83
2022/02/16 04:34:58;;;;;;;2.40;2.05;;;17.90;68.00;;;;;;5018299;28;20573;-84
2022/02/16 04:37:26;;;;;;;2.30;1.80;;;17.90;68.10;;;;;;5000871;28;20316;-83
2022/02/16 04:39:53;;;;;;;5.22;2.17;;;17.90;67.80;;;;;;4984639;28;20189;-83
2022/02/16 04:42:20;;;;;;;4.03;2.03;;;17.80;68.30;;;;;;5001117;28;20220;-83
2022/02/16 04:44:45;;;;;;;3.72;2.00;;;17.90;68.40;;;;;;5000965;28;20282;-83
2022/02/16 04:47:12;;;;;;;3.40;2.05;;;17.90;68.30;;;;;;5035717;28;20250;-84
2022/02/16 04:49:39;;;;;;;2.60;2.00;;;17.90;67.80;;;;;;4984307;28;20208;-83
2022/02/16 04:52:07;;;;;;;2.90;2.10;;;17.90;68.40;;;;;;4984125;28;20192;-83
2022/02/16 04:54:35;;;;;;;3.28;1.67;;;17.90;68.30;;;;;;5000603;28;20206;-83
2022/02/16 04:57:02;;;;;;;2.97;2.03;;;17.90;68.40;;;;;;5000905;28;20182;-83
2022/02/16 04:59:28;;;;;;;3.28;2.00;;;17.90;68.00;;;;;;4984471;28;20174;-83
2022/02/16 05:01:54;;;;;;;3.05;2.00;;;17.80;68.40;;;;;;5000710;28;20178;-83
2022/02/16 05:04:20;;;;;;;3.45;2.05;;;17.80;68.30;;;;;;5035275;28;20173;-83
2022/02/16 05:06:45;;;;;;;3.30;1.90;;;17.90;68.10;;;;;;5017576;28;20167;-83
2022/02/16 05:09:11;;;;;;;3.42;2.10;;;17.80;67.80;;;;;;5001680;28;20155;-83
2022/02/16 05:11:37;;;;;;;5.35;2.42;;;17.80;68.10;;;;;;5001253;28;20170;-83
2022/02/16 05:14:02;;;;;;;3.15;2.00;;;17.80;68.50;;;;;;5000852;28;20644;-84
2022/02/16 05:16:30;;;;;;;3.92;2.03;;;17.80;68.00;;;;;;4984970;28;20245;-83
2022/02/16 05:18:59;;;;;;;4.18;2.00;;;17.80;68.40;;;;;;5000151;28;20182;-83
2022/02/16 05:21:26;;;;;;;3.55;2.20;;;17.80;68.30;;;;;;4984676;28;20184;-83
2022/02/16 05:23:54;;;;;;;4.25;2.10;;;17.80;68.30;;;;;;5000022;28;20273;-83
2022/02/16 05:26:19;;;;;;;3.45;2.00;;;17.90;67.80;;;;;;5000171;28;20183;-83
2022/02/16 05:28:45;;;;;;;5.05;2.20;;;17.90;66.20;;;;;;5017153;28;20227;-83
2022/02/16 05:31:10;;;;;;;3.45;2.20;;;18.00;66.70;;;;;;5017177;28;20204;-83
2022/02/16 05:33:36;;;;;;;2.70;2.20;;;18.00;65.60;;;;;;5016856;28;20169;-83
2022/02/16 05:36:04;;;;;;;3.05;1.92;;;18.00;66.00;;;;;;4984312;28;20283;-83
2022/02/16 05:38:29;;;;;;;4.88;2.20;;;18.00;65.50;;;;;;5001018;28;20173;-83
2022/02/16 05:40:55;;;;;;;3.78;2.00;;;18.10;65.60;;;;;;5000795;28;20155;-84
2022/02/16 05:43:21;;;;;;;2.92;2.10;;;18.10;65.50;;;;;;5000479;28;20163;-83
2022/02/16 05:45:47;;;;;;;2.95;1.90;;;18.10;65.90;;;;;;4984243;28;20213;-83
2022/02/16 05:48:19;;;;;;;3.97;2.50;;;18.10;65.90;;;;;;5000677;28;20155;-83
2022/02/16 05:50:47;;;;;;;3.30;2.00;;;18.10;66.20;;;;;;5002852;28;20155;-83
2022/02/16 05:53:12;;;;;;;2.20;1.77;;;18.10;65.90;;;;;;5000614;28;20159;-83
2022/02/16 05:55:41;;;;;;;2.72;2.30;;;18.20;65.50;;;;;;5000641;28;20202;-83
2022/02/16 05:58:08;;;;;;;2.38;2.17;;;18.20;65.00;;;;;;4967091;28;20205;-83
2022/02/16 06:00:36;;;;;;;3.70;1.95;;;18.20;65.60;;;;;;4967345;28;20591;-84
2022/02/16 06:03:04;;;;;;;4.00;2.13;;;18.20;65.60;;;;;;4999740;28;20194;-83
2022/02/16 06:05:31;;;;;;;2.70;2.00;;;18.10;65.40;;;;;;4983156;28;20277;-83
2022/02/16 06:07:57;;;;;;;2.75;2.05;;;18.20;65.40;;;;;;5016760;28;20233;-84
2022/02/16 06:10:22;;;;;;;3.45;2.20;;;18.20;65.30;;;;;;5000209;28;20634;-84
2022/02/16 06:12:48;;;;;;;2.78;2.10;;;18.20;64.70;;;;;;4999936;28;20944;-83
2022/02/16 06:15:14;;;;;;;2.45;1.80;;;18.20;65.30;;;;;;4984416;28;20191;-84
2022/02/16 06:17:40;;;;;;;2.97;1.98;;;18.20;65.10;;;;;;4983625;28;20162;-84
2022/02/16 06:20:06;;;;;;;2.83;1.88;;;18.20;65.00;;;;;;4983901;28;20533;-84
2022/02/16 06:22:32;;;;;;;2.67;2.13;;;18.20;65.00;;;;;;5000115;28;20170;-84
2022/02/16 06:24:59;;;;;;;2.55;1.90;;;18.20;64.90;;;;;;5033664;28;20676;-84
2022/02/16 06:27:24;;;;;;;2.78;1.92;;;18.20;64.90;;;;;;5016429;28;20276;-84
2022/02/16 06:29:50;;;;;;;3.35;2.00;;;18.20;64.90;;;;;;5016114;28;20162;-84
2022/02/16 06:32:16;;;;;;;2.60;1.90;;;18.20;64.50;;;;;;4999487;28;20781;-84
2022/02/16 06:34:43;;;;;;;3.03;1.90;;;18.30;65.00;;;;;;5016073;28;20190;-84
2022/02/16 06:37:09;;;;;;;3.30;2.00;;;18.20;64.80;;;;;;5015824;28;20625;-81
2022/02/16 06:39:35;;;;;;;2.85;2.22;;;18.30;64.70;;;;;;5015636;28;20175;-83
2022/02/16 06:42:01;;;;;;;2.65;1.80;;;18.30;64.30;;;;;;5000012;28;20166;-84
2022/02/16 06:44:27;;;;;;;5.25;2.10;;;18.30;64.60;;;;;;5015699;28;20656;-83
2022/02/16 06:46:53;;;;;;;4.10;2.35;;;18.30;64.70;;;;;;4999361;28;20171;-84
2022/02/16 06:49:18;;;;;;;3.17;1.85;;;18.30;64.80;;;;;;5000059;28;20716;-84
2022/02/16 06:51:44;;;;;;;3.70;2.03;;;18.30;64.30;;;;;;5015785;28;20526;-83
2022/02/16 06:54:10;;;;;;;3.00;1.80;;;18.30;64.00;;;;;;5015975;28;20614;-84
2022/02/16 06:56:36;;;;;;;2.65;1.95;;;18.20;64.10;;;;;;5015991;28;20169;-83
2022/02/16 06:59:02;;;;;;;2.55;1.73;;;18.30;64.10;;;;;;5000521;28;20170;-84
2022/02/16 07:01:27;;;;;;;3.75;2.20;;;18.30;64.10;;;;;;5033153;28;20224;-84
2022/02/16 07:03:53;;;;;;;2.60;2.05;;;18.30;64.20;;;;;;4999144;28;20193;-84
2022/02/16 07:06:19;;;;;;;3.72;1.92;;;18.30;63.70;;;;;;4982565;28;20174;-84
2022/02/16 07:08:45;;;;;;;4.43;2.00;;;18.30;64.20;;;;;;4998860;28;20193;-83
2022/02/16 07:11:11;;;;;;;3.08;2.20;;;18.30;64.00;;;;;;4999134;28;20534;-84
2022/02/16 07:13:37;;;;;;;3.95;1.70;;;18.30;63.20;;;;;;4999153;28;20163;-84
2022/02/16 07:16:02;;;;;;;2.78;2.00;;;18.30;63.60;;;;;;5015510;28;20186;-83
2022/02/16 07:18:30;;;;;;;2.47;1.95;;;18.40;63.40;;;;;;4999058;28;20753;-84
2022/02/16 07:20:56;;;;;;;3.67;2.20;;;18.40;64.00;;;;;;4998583;28;20616;-84
2022/02/16 07:23:22;;;;;;;3.25;2.17;;;18.40;63.00;;;;;;4985972;28;20246;-84
2022/02/16 07:25:48;;;;;;;2.10;1.90;;;18.40;63.60;;;;;;4996226;28;20171;-83
2022/02/16 07:28:14;;;;;;;2.42;2.05;;;18.40;64.10;;;;;;4979518;28;20255;-84
2022/02/16 07:30:45;;;;;;;4.03;1.92;;;18.40;63.60;;;;;;4980152;28;20182;-84
2022/02/16 07:33:12;;;;;;;2.08;1.88;;;18.40;63.20;;;;;;4980650;28;20223;-83
2022/02/16 07:35:38;;;;;;;2.25;1.90;;;18.40;63.30;;;;;;4995927;28;20190;-85
2022/02/16 07:38:04;;;;;;;3.15;2.05;;;18.50;63.20;;;;;;4995706;28;20164;-84
2022/02/16 07:40:30;;;;;;;2.53;1.88;;;18.40;63.30;;;;;;4995393;28;20225;-83
2022/02/16 07:42:56;;;;;;;3.25;2.00;;;18.40;63.80;;;;;;5012863;28;20632;-84
2022/02/16 07:45:21;;;;;;;4.78;1.90;;;18.40;61.20;;;;;;4997936;28;20488;-83
2022/02/16 07:47:47;;;;;;;2.10;1.88;;;18.40;60.70;;;;;;5000076;28;20691;-84
2022/02/16 07:50:13;;;;;;;2.53;2.13;;;18.40;61.50;;;;;;4984506;28;20175;-83
2022/02/16 07:52:39;;;;;;;2.15;1.80;;;18.50;61.00;;;;;;5000413;28;20167;-84
2022/02/16 07:55:05;;;;;;;2.88;1.90;;;18.50;61.60;;;;;;5000671;28;20207;-83
2022/02/16 07:57:39;;;;;;;2.88;1.98;;;18.50;61.20;;;;;;5005516;28;20170;-85
2022/02/16 08:00:05;;;;;;;2.88;2.10;;;18.60;61.20;;;;;;4973050;28;20206;-83
2022/02/16 08:02:31;;;;;;;3.78;1.95;;;18.50;61.60;;;;;;4970457;28;20217;-84
2022/02/16 08:04:57;;;;;;;2.53;2.10;;;18.60;61.60;;;;;;4991487;28;20176;-83
2022/02/16 08:07:26;;;;;;;2.92;1.88;;;18.60;62.10;;;;;;4985711;28;20175;-83
2022/02/16 08:09:53;;;;;;;2.83;1.90;;;18.60;63.90;;;;;;4982840;28;20160;-83
2022/02/16 08:12:23;;;;;;;3.22;1.85;;;18.60;63.50;;;;;;4967131;28;20253;-82
2022/02/16 08:14:56;;;;;;;2.53;2.13;;;18.60;64.00;;;;;;4948907;28;20215;-82
2022/02/16 08:17:26;;;;;;;5.10;1.92;;;18.60;63.20;;;;;;4914009;29;20184;-82
2022/02/16 08:19:54;;;;;;;3.58;1.92;;;18.60;63.70;;;;;;4927631;29;20178;-82
2022/02/16 08:22:21;;;;;;;3.13;1.95;;;18.60;64.40;;;;;;4909647;29;20272;-83
2022/02/16 08:24:46;;;;;;;3.10;1.70;;;18.60;64.30;;;;;;4910694;29;20598;-82
2022/02/16 08:27:12;;;;;;;2.33;1.77;;;18.60;62.70;;;;;;4934393;29;20249;-83
2022/02/16 08:30:00;;;;;;;3.80;1.80;;;18.70;62.90;;;;;;4906814;29;20194;-82
2022/02/16 08:32:26;;;;;;;3.63;1.85;;;18.70;61.60;;;;;;4909797;29;20247;-82
2022/02/16 08:34:52;;;;;;;2.40;2.00;;;18.70;62.20;;;;;;4939835;29;20201;-83
2022/02/16 08:37:27;;;;;;;2.55;2.00;;;18.70;61.40;;;;;;4907899;29;20272;-82
2022/02/16 08:39:53;;;;;;;2.35;1.85;;;18.70;60.80;;;;;;4889709;29;20193;-82
2022/02/16 08:42:18;;;;;;;2.45;1.98;;;18.70;61.80;;;;;;4937425;29;20216;-82
2022/02/16 08:44:44;;;;;;;3.55;1.85;;;18.70;62.00;;;;;;4922176;29;20189;-82
2022/02/16 08:47:11;;;;;;;3.17;2.10;;;18.70;61.20;;;;;;4924475;28;20179;-82
2022/02/16 08:49:38;;;;;;;2.63;2.15;;;18.80;62.70;;;;;;4978288;28;20156;-83
2022/02/16 08:52:05;;;;;;;3.38;2.15;;;18.70;62.20;;;;;;4980072;28;20176;-82
2022/02/16 08:54:31;;;;;;;3.60;1.85;;;18.70;63.10;;;;;;4964337;28;20271;-83
2022/02/16 08:56:57;;;;;;;2.17;1.83;;;18.80;61.80;;;;;;4978840;28;20251;-83
2022/02/16 08:59:23;;;;;;;3.10;1.90;;;18.80;62.50;;;;;;4997562;28;20249;-82
2022/02/16 09:01:49;;;;;;;2.70;1.90;;;18.80;62.60;;;;;;4998463;28;20200;-84
2022/02/16 09:04:15;;;;;;;6.05;2.20;;;18.90;62.40;;;;;;4963831;28;20176;-83
2022/02/16 09:07:27;;;;;;;4.80;2.10;;;18.80;62.00;;;;;;4963412;28;20180;-82
2022/02/16 09:09:29;;;;;;;2.40;1.83;;;18.80;62.50;;;;;;4998977;28;20176;-83
2022/02/16 09:11:54;;;;;;;5.25;2.10;;;18.80;61.80;;;;;;4979648;28;20255;-83
2022/02/16 09:14:21;;;;;;;3.90;1.88;;;18.90;62.70;;;;;;4978782;28;20196;-82
2022/02/16 09:16:51;;;;;;;5.70;1.80;;;18.90;61.70;;;;;;4978939;28;20192;-82
2022/02/16 09:19:17;;;;;;;3.13;1.70;;;18.90;62.80;;;;;;4963354;28;20624;-83
2022/02/16 09:22:06;;;;;;;5.15;2.08;;;18.90;61.70;;;;;;4980021;28;20171;-82
2022/02/16 09:24:31;;;;;;;2.10;1.70;;;18.90;61.80;;;;;;4981247;28;20172;-83
2022/02/16 09:26:57;;;;;;;2.92;2.00;;;18.90;63.00;;;;;;4968454;28;20219;-83
2022/02/16 09:29:23;;;;;;;2.97;1.95;;;19.00;62.20;;;;;;4998006;28;20182;-82
2022/02/16 09:31:49;;;;;;;2.42;1.92;;;18.90;62.30;;;;;;4996561;28;20213;-83
2022/02/16 09:34:15;;;;;;;2.45;1.80;;;19.00;62.60;;;;;;4978816;28;20587;-82
2022/02/16 09:36:41;;;;;;;2.58;1.83;;;18.90;62.20;;;;;;4979453;28;20161;-84
2022/02/16 09:39:07;;;;;;;4.07;2.00;;;18.90;62.50;;;;;;4995796;28;20211;-83
2022/02/16 09:41:33;;;;;;;5.20;2.03;;;18.90;61.80;;;;;;4998506;28;20171;-82
2022/02/16 09:43:59;;;;;;;3.88;2.15;;;18.90;61.50;;;;;;4978627;28;20211;-82
2022/02/16 09:46:25;;;;;;;2.97;2.20;;;18.90;62.70;;;;;;4978377;28;20255;-83
2022/02/16 09:48:51;;;;;;;2.35;1.80;;;18.90;62.50;;;;;;4994898;28;20183;-82
2022/02/16 09:51:17;;;;;;;3.72;1.92;;;18.90;62.10;;;;;;4964450;28;20160;-82
2022/02/16 09:53:43;;;;;;;3.45;1.90;;;19.00;62.30;;;;;;4995717;28;20247;-82
2022/02/16 09:56:09;;;;;;;2.38;1.77;;;18.90;62.70;;;;;;4987401;28;20195;-82
2022/02/16 09:58:35;;;;;;;3.58;2.10;;;18.90;62.30;;;;;;4997774;28;20175;-83
2022/02/16 10:01:04;;;;;;;4.43;2.00;;;18.90;62.50;;;;;;4997544;28;20172;-81
2022/02/16 10:03:30;;;;;;;2.10;1.40;;;18.90;62.00;;;;;;4996778;28;20152;-82
2022/02/16 10:05:56;;;;;;;3.83;1.85;;;18.90;61.30;;;;;;4997173;28;20172;-83
2022/02/16 10:08:41;;;;;;;3.65;1.92;;;19.00;62.50;;;;;;4980574;28;20603;-82
2022/02/16 10:11:08;;;;;;;2.67;2.03;;;18.90;61.80;;;;;;4965724;28;20187;-81
2022/02/16 10:14:12;;;;;;;2.20;1.70;;;19.00;62.20;;;;;;4997306;28;20160;-82
2022/02/16 10:16:38;;;;;;;2.85;2.00;;;18.90;63.20;;;;;;4996175;28;20218;-81
2022/02/16 10:19:06;;;;;;;2.30;1.70;;;18.90;63.00;;;;;;4998558;28;20179;-82
2022/02/16 10:21:31;;;;;;;3.90;1.90;;;19.00;63.40;;;;;;4983429;28;20159;-81
2022/02/16 10:23:57;;;;;;;2.28;1.95;;;18.90;63.60;;;;;;5014437;28;20163;-82
2022/02/16 10:26:50;;;;;;;3.67;1.80;;;18.90;64.00;;;;;;4996650;28;20159;-82
2022/02/16 10:29:36;;;;;;;3.20;1.80;;;18.90;61.90;;;;;;4996902;28;20644;-81
2022/02/16 10:32:35;;;;;;;4.35;1.70;;;19.00;62.10;;;;;;5011724;28;20187;-82
2022/02/16 10:35:02;;;;;;;2.15;1.80;;;19.00;62.20;;;;;;4986786;28;20249;-82
2022/02/16 10:37:36;;;;;;;5.95;1.90;;;19.00;62.70;;;;;;4979106;28;20179;-81
2022/02/16 10:40:15;;;;;;;2.80;1.73;;;18.90;62.60;;;;;;4963048;28;20186;-82
2022/02/16 10:42:54;;;;;;;2.33;1.50;;;19.00;62.20;;;;;;4948364;28;20237;-81
2022/02/16 10:45:21;;;;;;;1.70;1.60;;;18.90;62.90;;;;;;4996623;28;20159;-81
2022/02/16 10:47:56;;;;;;;3.05;2.03;;;19.00;62.70;;;;;;4956937;28;20192;-81
2022/02/16 10:50:25;;;;;;;2.65;1.67;;;19.00;62.80;;;;;;4918929;29;20248;-81
2022/02/16 10:52:55;;;;;;;2.35;1.58;;;19.00;61.70;;;;;;4920527;29;20649;-81
2022/02/16 10:55:48;;;;;;;4.18;1.80;;;19.00;62.70;;;;;;4919172;29;20214;-82
2022/02/16 10:58:20;;;;;;;3.03;1.60;;;19.00;62.30;;;;;;4919200;29;20287;-82
2022/02/16 11:00:56;;;;;;;2.47;1.40;;;19.00;62.20;;;;;;4918759;29;20178;-81
2022/02/16 11:03:28;;;;;;;4.72;1.90;;;18.90;61.80;;;;;;4918894;29;20189;-81
2022/02/16 11:05:55;;;;;;;2.10;1.85;;;19.00;62.30;;;;;;4918245;29;20182;-82
2022/02/16 11:08:25;;;;;;;4.10;1.90;;;19.00;62.20;;;;;;4918539;29;20222;-82
2022/02/16 11:10:51;;;;;;;2.92;1.80;;;19.00;63.10;;;;;;4919968;29;20553;-81
2022/02/16 11:13:21;;;;;;;4.68;1.90;;;19.00;61.90;;;;;;4919156;29;20673;-79
2022/02/16 11:15:48;;;;;;;2.35;1.60;;;19.00;62.00;;;;;;4903594;29;20697;-81
2022/02/16 11:18:17;;;;;;;3.17;1.80;;;19.10;62.10;;;;;;4930191;28;20189;-81
2022/02/16 11:20:44;;;;;;;2.70;1.70;;;19.10;62.10;;;;;;4974759;28;20202;-81
2022/02/16 11:23:12;;;;;;;2.22;1.73;;;19.00;62.50;;;;;;4986191;28;20211;-81
2022/02/16 11:25:40;;;;;;;2.47;1.70;;;19.00;62.20;;;;;;4987600;28;20159;-81
2022/02/16 11:28:11;;;;;;;2.10;1.70;;;19.00;61.80;;;;;;5003724;28;20218;-81
2022/02/16 11:30:45;;;;;;;2.35;1.38;;;19.00;61.90;;;;;;5003305;28;20183;-82
2022/02/16 11:33:28;;;;;;;2.78;1.83;;;19.10;61.60;;;;;;4987194;28;20170;-83
2022/02/16 11:35:56;;;;;;;3.67;1.77;;;19.10;61.90;;;;;;5004752;28;20179;-82
2022/02/16 11:38:39;;;;;;;2.70;1.50;;;19.10;62.10;;;;;;4970335;28;20163;-82
2022/02/16 11:41:26;;;;;;;1.50;1.40;;;19.10;62.10;;;;;;4973162;28;20170;-82
2022/02/16 11:44:00;;;;;;;3.03;1.60;;;19.10;61.80;;;;;;5003781;28;20156;-83
2022/02/16 11:46:43;;;;;;;2.28;1.70;;;19.10;62.80;;;;;;4988723;28;20689;-81
2022/02/16 11:49:45;;;;;;;2.08;1.50;;;19.10;62.80;;;;;;5019818;28;20174;-83
2022/02/16 11:52:30;;;;;;;2.00;1.60;;;19.00;62.30;;;;;;4986498;28;20163;-84
2022/02/16 11:54:57;;;;;;;2.00;1.42;;;19.00;62.50;;;;;;4990304;28;20665;-82
2022/02/16 11:57:36;;;;;;;2.67;1.60;;;19.00;61.70;;;;;;4988471;28;20167;-81
2022/02/16 12:00:25;;;;;;;3.08;1.52;;;19.10;61.20;;;;;;5004262;28;20166;-84
2022/02/16 12:03:12;;;;;;;2.15;1.58;;;19.10;61.90;;;;;;5006622;28;20561;-83
2022/02/16 12:06:08;;;;;;;1.27;1.13;;;19.10;62.30;;;;;;4974876;28;20192;-82
2022/02/16 12:09:03;;;;;;;1.83;1.58;;;19.00;61.50;;;;;;4992643;28;20171;-83
2022/02/16 12:11:31;;;;;;;1.83;1.42;;;19.00;62.10;;;;;;4993870;28;20163;-83
2022/02/16 12:14:12;;;;;;;2.58;1.77;;;19.10;62.00;;;;;;4988873;28;20191;-84
2022/02/16 12:16:43;;;;;;;3.47;1.50;;;19.10;62.10;;;;;;4991480;28;20662;-82
2022/02/16 12:19:15;;;;;;;3.30;1.60;;;19.10;61.40;;;;;;4990693;28;20547;-84
2022/02/16 12:21:46;;;;;;;1.85;1.40;;;19.10;61.30;;;;;;5003183;28;20246;-83
2022/02/16 12:24:14;;;;;;;2.20;1.50;;;19.10;61.80;;;;;;4985945;28;20246;-83
2022/02/16 12:26:41;;;;;;;1.67;1.30;;;19.10;61.40;;;;;;4969446;28;20535;-82
2022/02/16 12:29:23;;;;;;;1.95;1.60;;;19.10;61.40;;;;;;4969139;28;20175;-83
2022/02/16 12:31:52;;;;;;;2.47;1.30;;;19.10;61.80;;;;;;4998505;28;20155;-84
2022/02/16 12:34:20;;;;;;;2.55;1.55;;;19.10;61.80;;;;;;4982490;28;20239;-83
2022/02/16 12:36:49;;;;;;;1.58;1.35;;;19.10;61.80;;;;;;4966196;28;20168;-84
2022/02/16 12:39:16;;;;;;;1.40;1.30;;;19.10;61.50;;;;;;4982603;28;20199;-83
2022/02/16 12:41:42;;;;;;;1.63;1.20;;;19.10;60.80;;;;;;4998675;28;20615;-83
2022/02/16 12:44:11;;;;;;;1.95;1.40;;;19.10;60.60;;;;;;4998674;28;20152;-85
2022/02/16 12:46:39;;;;;;;3.63;1.45;;;19.20;60.10;;;;;;4998354;28;20155;-82
2022/02/16 12:49:08;;;;;;;2.13;1.52;;;19.20;60.60;;;;;;5015483;28;20490;-84
2022/02/16 12:51:37;;;;;;;3.28;1.65;;;19.20;60.50;;;;;;4998247;28;20160;-83
2022/02/16 12:54:06;;;;;;;1.95;1.45;;;19.20;61.20;;;;;;5014373;28;20190;-83